Shuya — V2QR4 — position and weather

sailwx.info

Track history (hours):
 
Tides and Currents Weather Stations Pressure Air Temp Water Temp Dewpoint Dewpoint Depression Visibility Wind Speed Wind Dir Waves Ship Positions

Shuya

Last reported at 2017-Nov-23 03:47 UTC. Time now 2017-Nov-23 11:25 UTC.
Position N 54°47' E 007°27'.

Length 96 m; draft 5.1 m.

Type: Cargo ship. MMSI: 304958000.

Date/timePositionNaut miles runAvg speedWind from/ knotsBaromVisibWave heightAir tempDewpointWater temp
2017-Nov-23 03:47N 54°47' E 007°27'2 4.6
2017-Nov-23 03:20N 54°49' E 007°27'2 4.2
2017-Nov-23 02:50N 54°52' E 007°27'1 4.1
2017-Nov-23 02:29N 54°53' E 007°28'2 4.3
2017-Nov-23 02:00N 54°55' E 007°28'2 4.5
2017-Nov-23 01:29N 54°57' E 007°28'3 4.4
2017-Nov-23 00:43N 55°01' E 007°28'1 4.6
2017-Nov-23 00:31N 55°02' E 007°28'2 4.6
2017-Nov-23 00:01N 55°04' E 007°28'2 5.0
2017-Nov-22 23:31N 55°06' E 007°28'3 5.0
2017-Nov-22 23:01N 55°09' E 007°27'3 5.5
2017-Nov-22 22:31N 55°12' E 007°27'3 5.5
2017-Nov-22 22:01N 55°14' E 007°26'3 6.0
2017-Nov-22 21:30N 55°17' E 007°24'  
2017-Nov-16 03:30N 55°09' E 011°04'510.4
2017-Nov-16 03:00N 55°04' E 011°03'510.1
2017-Nov-16 02:30N 54°59' E 011°01'5 9.7
2017-Nov-16 02:00N 54°56' E 010°56'5 9.0
2017-Nov-16 01:30N 54°51' E 010°53'4 8.8
2017-Nov-16 01:00N 54°47' E 010°53'5 9.4
2017-Nov-16 00:31N 54°42' E 010°53'5 9.5
2017-Nov-16 00:00N 54°40' E 011°00'5 9.6
2017-Nov-15 23:30N 54°37' E 011°07'5 9.6
2017-Nov-15 23:00N 54°35' E 011°15'5 9.3
2017-Nov-15 22:30N 54°33' E 011°22'5 9.0
2017-Nov-15 21:59N 54°31' E 011°29'5 9.6
2017-Nov-15 21:30N 54°29' E 011°37'5 9.7
2017-Nov-15 21:00N 54°26' E 011°44'5 9.3
2017-Nov-15 20:30N 54°26' E 011°52'227 7.8
2017-Nov-14 15:21N 54°56' E 018°20'3 8.6
2017-Nov-14 15:00N 54°56' E 018°25'4 8.6
2017-Nov-14 14:30N 54°57' E 018°33'4 8.4
2017-Nov-14 14:00N 54°56' E 018°40'5 9.2
2017-Nov-14 13:30N 54°53' E 018°46'5 9.4
2017-Nov-14 13:00N 54°50' E 018°53'5 9.4
2017-Nov-14 12:30N 54°47' E 018°59'5 9.4
2017-Nov-14 12:00N 54°42' E 018°59'510.0
2017-Nov-14 11:30N 54°38' E 018°56'510.0
2017-Nov-14 11:00N 54°33' E 018°51'510.3
2017-Nov-14 10:30N 54°30' E 018°45'4 8.1
2017-Nov-14 10:00N 54°27' E 018°40'3 5.1
2017-Nov-14 09:31N 54°24' E 018°41'2 3.1
2017-Nov-14 09:00N 54°23' E 018°39'0 0.0
2017-Nov-14 08:20N 54°23' E 018°39'0 0.0
2017-Nov-14 07:56N 54°23' E 018°39'0 0.0
2017-Nov-14 07:29N 54°23' E 018°39'0 0.0
2017-Nov-14 06:56N 54°23' E 018°39'0 0.0
2017-Nov-14 06:29N 54°23' E 018°39'0 0.0
2017-Nov-14 05:59N 54°23' E 018°39'0 0.0
2017-Nov-14 05:29N 54°23' E 018°39'0 0.0
2017-Nov-14 04:59N 54°23' E 018°39'0 0.0
2017-Nov-14 04:17N 54°23' E 018°39'0 0.0
2017-Nov-14 03:59N 54°23' E 018°39'0 0.0
2017-Nov-14 03:29N 54°23' E 018°39'0 0.0
2017-Nov-14 02:56N 54°23' E 018°39'0 0.0
2017-Nov-14 02:29N 54°23' E 018°39'0 0.0
2017-Nov-14 01:56N 54°23' E 018°39'0 0.0
2017-Nov-14 01:29N 54°23' E 018°39'0 0.0
2017-Nov-14 00:59N 54°23' E 018°39'0 0.0
2017-Nov-14 00:29N 54°23' E 018°39'0 0.0
2017-Nov-13 23:59N 54°23' E 018°39'0 0.0
2017-Nov-13 23:29N 54°23' E 018°39'0 0.0
2017-Nov-13 22:59N 54°23' E 018°39'0 0.0
2017-Nov-13 22:29N 54°23' E 018°39'0 0.0
2017-Nov-13 21:59N 54°23' E 018°39'  
Track history (hours):
 
Tides and Currents Weather Stations Pressure Air Temp Water Temp Dewpoint Dewpoint Depression Visibility Wind Speed Wind Dir Waves Ship Positions

Shuya

Last reported at 2017-Nov-23 03:47 UTC. Time now 2017-Nov-23 11:25 UTC.
Position N 54°47' E 007°27'.

Length 96 m; draft 5.1 m.

Type: Cargo ship. MMSI: 304958000.

Date/timePositionNaut miles runAvg speedWind from/ knotsBaromVisibWave heightAir tempDewpointWater temp
2017-Nov-23 03:47N 54°47' E 007°27'2 4.6
2017-Nov-23 03:20N 54°49' E 007°27'2 4.2
2017-Nov-23 02:50N 54°52' E 007°27'1 4.1
2017-Nov-23 02:29N 54°53' E 007°28'2 4.3
2017-Nov-23 02:00N 54°55' E 007°28'2 4.5
2017-Nov-23 01:29N 54°57' E 007°28'3 4.4
2017-Nov-23 00:43N 55°01' E 007°28'1 4.6
2017-Nov-23 00:31N 55°02' E 007°28'2 4.6
2017-Nov-23 00:01N 55°04' E 007°28'2 5.0
2017-Nov-22 23:31N 55°06' E 007°28'3 5.0
2017-Nov-22 23:01N 55°09' E 007°27'3 5.5
2017-Nov-22 22:31N 55°12' E 007°27'3 5.5
2017-Nov-22 22:01N 55°14' E 007°26'3 6.0
2017-Nov-22 21:30N 55°17' E 007°24'  
2017-Nov-16 03:30N 55°09' E 011°04'510.4
2017-Nov-16 03:00N 55°04' E 011°03'510.1
2017-Nov-16 02:30N 54°59' E 011°01'5 9.7
2017-Nov-16 02:00N 54°56' E 010°56'5 9.0
2017-Nov-16 01:30N 54°51' E 010°53'4 8.8
2017-Nov-16 01:00N 54°47' E 010°53'5 9.4
2017-Nov-16 00:31N 54°42' E 010°53'5 9.5
2017-Nov-16 00:00N 54°40' E 011°00'5 9.6
2017-Nov-15 23:30N 54°37' E 011°07'5 9.6
2017-Nov-15 23:00N 54°35' E 011°15'5 9.3
2017-Nov-15 22:30N 54°33' E 011°22'5 9.0
2017-Nov-15 21:59N 54°31' E 011°29'5 9.6
2017-Nov-15 21:30N 54°29' E 011°37'5 9.7
2017-Nov-15 21:00N 54°26' E 011°44'5 9.3
2017-Nov-15 20:30N 54°26' E 011°52'227 7.8
2017-Nov-14 15:21N 54°56' E 018°20'3 8.6
2017-Nov-14 15:00N 54°56' E 018°25'4 8.6
2017-Nov-14 14:30N 54°57' E 018°33'4 8.4
2017-Nov-14 14:00N 54°56' E 018°40'5 9.2
2017-Nov-14 13:30N 54°53' E 018°46'5 9.4
2017-Nov-14 13:00N 54°50' E 018°53'5 9.4
2017-Nov-14 12:30N 54°47' E 018°59'5 9.4
2017-Nov-14 12:00N 54°42' E 018°59'510.0
2017-Nov-14 11:30N 54°38' E 018°56'510.0
2017-Nov-14 11:00N 54°33' E 018°51'510.3
2017-Nov-14 10:30N 54°30' E 018°45'4 8.1
2017-Nov-14 10:00N 54°27' E 018°40'3 5.1
2017-Nov-14 09:31N 54°24' E 018°41'2 3.1
2017-Nov-14 09:00N 54°23' E 018°39'0 0.0
2017-Nov-14 08:20N 54°23' E 018°39'0 0.0
2017-Nov-14 07:56N 54°23' E 018°39'0 0.0
2017-Nov-14 07:29N 54°23' E 018°39'0 0.0
2017-Nov-14 06:56N 54°23' E 018°39'0 0.0
2017-Nov-14 06:29N 54°23' E 018°39'0 0.0
2017-Nov-14 05:59N 54°23' E 018°39'0 0.0
2017-Nov-14 05:29N 54°23' E 018°39'0 0.0
2017-Nov-14 04:59N 54°23' E 018°39'0 0.0
2017-Nov-14 04:17N 54°23' E 018°39'0 0.0
2017-Nov-14 03:59N 54°23' E 018°39'0 0.0
2017-Nov-14 03:29N 54°23' E 018°39'0 0.0
2017-Nov-14 02:56N 54°23' E 018°39'0 0.0
2017-Nov-14 02:29N 54°23' E 018°39'0 0.0
2017-Nov-14 01:56N 54°23' E 018°39'0 0.0
2017-Nov-14 01:29N 54°23' E 018°39'0 0.0
2017-Nov-14 00:59N 54°23' E 018°39'0 0.0
2017-Nov-14 00:29N 54°23' E 018°39'0 0.0
2017-Nov-13 23:59N 54°23' E 018°39'0 0.0
2017-Nov-13 23:29N 54°23' E 018°39'0 0.0
2017-Nov-13 22:59N 54°23' E 018°39'0 0.0
2017-Nov-13 22:29N 54°23' E 018°39'0 0.0
2017-Nov-13 21:59N 54°23' E 018°39'  

Dump ship's entire track history